createdAt,value
2023-02-15T00:00:02.602Z,1027.21
2023-02-15T00:01:02.586Z,1027.28
2023-02-15T00:02:02.588Z,1027.19
2023-02-15T00:03:02.606Z,1027.21
2023-02-15T00:04:02.533Z,1027.19
2023-02-15T00:05:02.527Z,1027.13
2023-02-15T00:06:02.796Z,1027.18
2023-02-15T00:07:02.544Z,1027.11
2023-02-15T00:08:02.537Z,1027.18
2023-02-15T00:09:02.498Z,1027.14
2023-02-15T00:10:02.441Z,1027.17
2023-02-15T00:11:02.486Z,1027.10
2023-02-15T00:12:02.425Z,1027.08
2023-02-15T00:13:02.432Z,1027.06
2023-02-15T00:14:02.393Z,1027.02
2023-02-15T00:15:02.429Z,1027.04
2023-02-15T00:16:02.738Z,1027.01
2023-02-15T00:17:02.408Z,1027.02
2023-02-15T00:18:02.395Z,1027.01
2023-02-15T00:19:02.380Z,1027.06
2023-02-15T00:20:02.360Z,1027.05
2023-02-15T00:21:02.340Z,1027.02
2023-02-15T00:22:02.319Z,1027.03
2023-02-15T00:23:02.338Z,1026.99
2023-02-15T00:24:02.297Z,1026.98
2023-02-15T00:25:02.270Z,1026.99
2023-02-15T00:26:02.448Z,1026.99
2023-02-15T00:27:02.284Z,1027.04
2023-02-15T00:28:02.266Z,1027.00
2023-02-15T00:29:02.221Z,1027.04
2023-02-15T00:30:02.257Z,1026.99
2023-02-15T00:31:02.287Z,1027.02
2023-02-15T00:32:02.170Z,1027.01
2023-02-15T00:33:02.188Z,1027.02
2023-02-15T00:34:02.159Z,1027.05
2023-02-15T00:35:02.165Z,1027.03
2023-02-15T00:36:02.421Z,1027.05
2023-02-15T00:37:02.150Z,1027.06
2023-02-15T00:38:02.129Z,1027.08
2023-02-15T00:39:02.100Z,1027.03
2023-02-15T00:40:02.114Z,1026.99
2023-02-15T00:41:02.092Z,1027.03
2023-02-15T00:42:02.074Z,1027.05
2023-02-15T00:43:02.048Z,1026.99
2023-02-15T00:44:02.027Z,1027.01
2023-02-15T00:45:02.023Z,1026.95
2023-02-15T00:46:02.385Z,1026.92
2023-02-15T00:47:02.024Z,1026.97
2023-02-15T00:48:02.011Z,1026.97
2023-02-15T00:49:01.973Z,1026.95
2023-02-15T00:50:02.014Z,1026.95
2023-02-15T00:51:01.972Z,1026.93
2023-02-15T00:52:01.916Z,1026.89
2023-02-15T00:53:01.941Z,1026.88
2023-02-15T00:54:01.936Z,1026.85
2023-02-15T00:55:01.885Z,1026.78
2023-02-15T00:56:02.212Z,1026.90
2023-02-15T00:57:01.898Z,1026.90
2023-02-15T00:58:01.884Z,1026.90
2023-02-15T00:59:01.889Z,1026.86
2023-02-15T01:00:01.812Z,1026.93
2023-02-15T01:01:01.857Z,1026.90
2023-02-15T01:02:01.821Z,1026.89
2023-02-15T01:03:01.785Z,1026.89
2023-02-15T01:04:01.773Z,1026.89
2023-02-15T01:05:01.763Z,1026.89
2023-02-15T01:06:02.121Z,1026.91
2023-02-15T01:07:01.759Z,1026.83
2023-02-15T01:08:01.739Z,1026.94
2023-02-15T01:09:01.740Z,1026.90
2023-02-15T01:10:01.733Z,1026.89
2023-02-15T01:11:01.709Z,1026.84
2023-02-15T01:12:01.666Z,1026.85
2023-02-15T01:13:01.664Z,1026.92
2023-02-15T01:14:01.651Z,1026.93
2023-02-15T01:15:01.645Z,1026.80
2023-02-15T01:16:02.048Z,1026.90
2023-02-15T01:17:01.613Z,1026.89
2023-02-15T01:18:01.583Z,1026.95
2023-02-15T01:19:01.628Z,1026.89
2023-02-15T01:20:01.556Z,1026.92
2023-02-15T01:21:01.563Z,1026.88
2023-02-15T01:22:01.545Z,1026.88
2023-02-15T01:23:01.532Z,1026.86
2023-02-15T01:24:01.547Z,1026.84
2023-02-15T01:25:01.505Z,1026.91
2023-02-15T01:26:01.924Z,1026.83
2023-02-15T01:27:01.491Z,1026.88
2023-02-15T01:28:01.455Z,1026.87
2023-02-15T01:29:01.500Z,1026.83
2023-02-15T01:30:01.455Z,1026.83
2023-02-15T01:31:01.534Z,1026.83
2023-02-15T01:32:01.538Z,1026.85
2023-02-15T01:33:01.474Z,1026.82
2023-02-15T01:34:01.401Z,1026.79
2023-02-15T01:35:01.397Z,1026.80
2023-02-15T01:36:01.765Z,1026.83
2023-02-15T01:37:01.377Z,1026.86
2023-02-15T01:38:01.329Z,1026.77
2023-02-15T01:39:01.324Z,1026.78
2023-02-15T01:40:01.336Z,1026.77
2023-02-15T01:41:01.309Z,1026.78
2023-02-15T01:42:01.272Z,1026.71
2023-02-15T01:43:01.305Z,1026.76
2023-02-15T01:44:01.258Z,1026.70
2023-02-15T01:45:01.295Z,1026.68
2023-02-15T01:46:01.612Z,1026.70
2023-02-15T01:47:01.253Z,1026.72
2023-02-15T01:48:01.247Z,1026.65
2023-02-15T01:49:01.201Z,1026.62
2023-02-15T01:50:01.218Z,1026.66
2023-02-15T01:51:01.569Z,1026.65
2023-02-15T01:52:01.144Z,1026.66
2023-02-15T01:53:01.151Z,1026.69
2023-02-15T01:54:01.127Z,1026.62
2023-02-15T01:55:01.167Z,1026.66
2023-02-15T01:56:01.439Z,1026.55
2023-02-15T01:57:01.104Z,1026.60
2023-02-15T01:58:01.088Z,1026.58
2023-02-15T01:59:01.092Z,1026.54
2023-02-15T02:00:01.098Z,1026.57
2023-02-15T02:01:01.419Z,1026.55
2023-02-15T02:02:01.053Z,1026.58
2023-02-15T02:03:01.099Z,1026.55
2023-02-15T02:04:00.990Z,1026.54
2023-02-15T02:05:01.059Z,1026.61
2023-02-15T02:06:01.320Z,1026.59
2023-02-15T02:07:00.970Z,1026.59
2023-02-15T02:08:00.990Z,1026.59
2023-02-15T02:09:00.945Z,1026.57
2023-02-15T02:10:00.956Z,1026.60
2023-02-15T02:11:00.912Z,1026.53
2023-02-15T02:12:00.918Z,1026.45
2023-02-15T02:13:00.914Z,1026.52
2023-02-15T02:14:00.878Z,1026.46
2023-02-15T02:15:00.901Z,1026.48
2023-02-15T02:16:01.200Z,1026.51
2023-02-15T02:17:00.834Z,1026.50
2023-02-15T02:18:00.836Z,1026.44
2023-02-15T02:19:00.858Z,1026.45
2023-02-15T02:20:00.821Z,1026.42
2023-02-15T02:21:00.805Z,1026.43
2023-02-15T02:22:00.757Z,1026.39
2023-02-15T02:23:00.789Z,1026.41
2023-02-15T02:24:00.771Z,1026.40
2023-02-15T02:25:00.736Z,1026.31
2023-02-15T02:26:01.158Z,1026.31
2023-02-15T02:27:00.732Z,1026.37
2023-02-15T02:28:00.711Z,1026.31
2023-02-15T02:29:00.716Z,1026.25
2023-02-15T02:30:00.752Z,1026.22
2023-02-15T02:31:00.827Z,1026.35
2023-02-15T02:32:00.660Z,1026.28
2023-02-15T02:33:00.656Z,1026.31
2023-02-15T02:34:00.630Z,1026.31
2023-02-15T02:35:00.606Z,1026.26
2023-02-15T02:36:00.911Z,1026.26
2023-02-15T02:37:00.599Z,1026.22
2023-02-15T02:38:00.579Z,1026.15
2023-02-15T02:39:00.551Z,1026.20
2023-02-15T02:40:00.532Z,1026.20
2023-02-15T02:41:00.550Z,1026.18
2023-02-15T02:42:00.528Z,1026.17
2023-02-15T02:43:00.531Z,1026.14
2023-02-15T02:44:00.483Z,1026.15
2023-02-15T02:45:00.510Z,1026.14
2023-02-15T02:46:00.855Z,1026.11
2023-02-15T02:47:00.493Z,1026.10
2023-02-15T02:48:00.435Z,1026.15
2023-02-15T02:49:00.460Z,1026.11
2023-02-15T02:50:00.450Z,1026.14
2023-02-15T02:51:00.446Z,1026.08
2023-02-15T02:52:00.403Z,1026.15
2023-02-15T02:53:00.401Z,1026.05
2023-02-15T02:54:00.359Z,1026.05
2023-02-15T02:55:00.359Z,1026.01
2023-02-15T02:56:00.828Z,1026.04
2023-02-15T02:57:00.334Z,1026.03
2023-02-15T02:58:00.310Z,1026.06
2023-02-15T02:59:00.333Z,1026.02
2023-02-15T03:00:00.308Z,1026.03
2023-02-15T03:01:00.335Z,1025.95
2023-02-15T03:02:00.369Z,1025.98
2023-02-15T03:03:00.330Z,1025.95
2023-02-15T03:04:00.234Z,1026.03
2023-02-15T03:05:00.273Z,1025.96
2023-02-15T03:06:00.486Z,1025.96
2023-02-15T03:07:00.247Z,1025.97
2023-02-15T03:08:00.178Z,1025.95
2023-02-15T03:09:00.203Z,1025.94
2023-02-15T03:10:00.171Z,1025.92
2023-02-15T03:11:00.173Z,1025.90
2023-02-15T03:12:00.161Z,1025.86
2023-02-15T03:13:00.155Z,1025.82
2023-02-15T03:14:00.138Z,1025.82
2023-02-15T03:15:00.144Z,1025.81
2023-02-15T03:16:00.501Z,1025.78
2023-02-15T03:17:00.110Z,1025.78
2023-02-15T03:18:00.119Z,1025.81
2023-02-15T03:19:00.078Z,1025.82
2023-02-15T03:20:00.028Z,1025.81
2023-02-15T03:21:00.082Z,1025.88
2023-02-15T03:21:59.998Z,1025.86
2023-02-15T03:23:00.057Z,1025.85
2023-02-15T03:24:00.005Z,1025.85
2023-02-15T03:25:00.011Z,1025.81
2023-02-15T03:26:00.292Z,1025.77
2023-02-15T03:26:59.983Z,1025.75
2023-02-15T03:27:59.937Z,1025.77
2023-02-15T03:28:59.935Z,1025.83
2023-02-15T03:29:59.935Z,1025.74
2023-02-15T03:31:00.040Z,1025.73
2023-02-15T03:32:00.035Z,1025.81
2023-02-15T03:32:59.915Z,1025.76
2023-02-15T03:33:59.856Z,1025.75
2023-02-15T03:34:59.856Z,1025.81
2023-02-15T03:36:00.411Z,1025.74
2023-02-15T03:36:59.854Z,1025.85
2023-02-15T03:37:59.808Z,1025.78
2023-02-15T03:38:59.826Z,1025.83
2023-02-15T03:39:59.789Z,1025.85
2023-02-15T03:40:59.889Z,1025.80
2023-02-15T03:42:00.704Z,1025.80
2023-02-15T03:42:59.758Z,1025.75
2023-02-15T03:43:59.720Z,1025.76
2023-02-15T03:44:59.773Z,1025.77
2023-02-15T03:46:00.082Z,1025.78
2023-02-15T03:46:59.797Z,1025.78
2023-02-15T03:47:59.708Z,1025.83
2023-02-15T03:48:59.672Z,1025.82
2023-02-15T03:49:59.663Z,1025.81
2023-02-15T03:50:59.640Z,1025.73
2023-02-15T03:51:59.661Z,1025.78
2023-02-15T03:52:59.632Z,1025.77
2023-02-15T03:53:59.637Z,1025.77
2023-02-15T03:54:59.580Z,1025.76
2023-02-15T03:55:59.898Z,1025.82
2023-02-15T03:56:59.601Z,1025.76
2023-02-15T03:57:59.558Z,1025.78
2023-02-15T03:58:59.529Z,1025.72
2023-02-15T03:59:59.540Z,1025.69
2023-02-15T04:00:59.557Z,1025.76
2023-02-15T04:01:59.547Z,1025.74
2023-02-15T04:02:59.560Z,1025.77
2023-02-15T04:03:59.480Z,1025.86
2023-02-15T04:04:59.485Z,1025.75
2023-02-15T04:05:59.689Z,1025.82
2023-02-15T04:06:59.433Z,1025.78
2023-02-15T04:07:59.475Z,1025.85
2023-02-15T04:08:59.434Z,1025.79
2023-02-15T04:09:59.415Z,1025.79
2023-02-15T04:10:59.385Z,1025.80
2023-02-15T04:11:59.378Z,1025.80
2023-02-15T04:12:59.369Z,1025.79
2023-02-15T04:13:59.385Z,1025.85
2023-02-15T04:14:59.357Z,1025.79
2023-02-15T04:15:59.543Z,1025.80
2023-02-15T04:16:59.324Z,1025.84
2023-02-15T04:17:59.326Z,1025.76
2023-02-15T04:18:59.288Z,1025.76
2023-02-15T04:19:59.307Z,1025.77
2023-02-15T04:20:59.289Z,1025.74
2023-02-15T04:21:59.261Z,1025.69
2023-02-15T04:22:59.242Z,1025.74
2023-02-15T04:23:59.259Z,1025.73
2023-02-15T04:24:59.231Z,1025.69
2023-02-15T04:25:59.447Z,1025.73
2023-02-15T04:26:59.217Z,1025.81
2023-02-15T04:27:59.186Z,1025.77
2023-02-15T04:28:59.168Z,1025.73
2023-02-15T04:29:59.242Z,1025.70
2023-02-15T04:30:59.151Z,1025.73
2023-02-15T04:31:59.221Z,1025.72
2023-02-15T04:32:59.109Z,1025.72
2023-02-15T04:33:59.144Z,1025.76
2023-02-15T04:34:59.113Z,1025.79
2023-02-15T04:35:59.343Z,1025.80
2023-02-15T04:36:59.052Z,1025.76
2023-02-15T04:37:59.082Z,1025.80
2023-02-15T04:38:59.051Z,1025.78
2023-02-15T04:39:59.028Z,1025.86
2023-02-15T04:40:58.993Z,1025.83
2023-02-15T04:41:59.033Z,1025.81
2023-02-15T04:42:59.008Z,1025.83
2023-02-15T04:43:58.982Z,1025.84
2023-02-15T04:44:58.968Z,1025.82
2023-02-15T04:45:59.005Z,1025.77
2023-02-15T04:46:58.923Z,1025.73
2023-02-15T04:47:58.941Z,1025.76
2023-02-15T04:48:58.910Z,1025.75
2023-02-15T04:49:58.930Z,1025.73
2023-02-15T04:50:58.898Z,1025.69
2023-02-15T04:51:58.873Z,1025.72
2023-02-15T04:52:58.866Z,1025.75
2023-02-15T04:53:58.859Z,1025.69
2023-02-15T04:54:58.821Z,1025.61
2023-02-15T04:55:58.819Z,1025.63
2023-02-15T04:56:58.795Z,1025.61
2023-02-15T04:57:58.804Z,1025.55
2023-02-15T04:58:58.816Z,1025.56
2023-02-15T04:59:58.795Z,1025.61
2023-02-15T05:00:58.793Z,1025.66
2023-02-15T05:01:58.767Z,1025.63
2023-02-15T05:02:58.719Z,1025.65
2023-02-15T05:03:58.772Z,1025.64
2023-02-15T05:04:58.738Z,1025.62
2023-02-15T05:05:58.716Z,1025.59
2023-02-15T05:06:58.706Z,1025.61
2023-02-15T05:07:58.662Z,1025.59
2023-02-15T05:08:58.655Z,1025.61
2023-02-15T05:09:58.680Z,1025.54
2023-02-15T05:10:58.643Z,1025.54
2023-02-15T05:11:58.616Z,1025.54
2023-02-15T05:12:58.593Z,1025.58
2023-02-15T05:13:58.618Z,1025.52
2023-02-15T05:14:58.575Z,1025.53
2023-02-15T05:15:58.590Z,1025.54
2023-02-15T05:16:58.562Z,1025.55
2023-02-15T05:17:58.571Z,1025.56
2023-02-15T05:18:58.534Z,1025.52
2023-02-15T05:19:58.515Z,1025.55
2023-02-15T05:20:58.497Z,1025.52
2023-02-15T05:21:58.484Z,1025.51
2023-02-15T05:22:58.501Z,1025.48
2023-02-15T05:23:58.485Z,1025.47
2023-02-15T05:24:58.459Z,1025.46
2023-02-15T05:25:58.447Z,1025.48
2023-02-15T05:26:58.425Z,1025.54
2023-02-15T05:27:58.441Z,1025.52
2023-02-15T05:28:58.407Z,1025.52
2023-02-15T05:29:58.543Z,1025.54
2023-02-15T05:30:58.727Z,1025.51
2023-02-15T05:31:58.543Z,1025.53
2023-02-15T05:32:58.340Z,1025.50
2023-02-15T05:33:58.358Z,1025.42
2023-02-15T05:34:58.319Z,1025.41
2023-02-15T05:35:58.343Z,1025.44
2023-02-15T05:36:58.296Z,1025.41
2023-02-15T05:37:58.320Z,1025.43
2023-02-15T05:38:58.334Z,1025.43
2023-02-15T05:39:58.288Z,1025.48
2023-02-15T05:40:58.236Z,1025.50
2023-02-15T05:41:58.250Z,1025.50
2023-02-15T05:42:58.224Z,1025.49
2023-02-15T05:43:58.252Z,1025.51
2023-02-15T05:44:58.232Z,1025.48
2023-02-15T05:45:58.251Z,1025.51
2023-02-15T05:46:58.175Z,1025.44
2023-02-15T05:47:58.194Z,1025.50
2023-02-15T05:48:58.168Z,1025.46
2023-02-15T05:49:58.156Z,1025.41
2023-02-15T05:50:58.118Z,1025.43
2023-02-15T05:51:58.124Z,1025.42
2023-02-15T05:52:58.131Z,1025.42
2023-02-15T05:53:58.134Z,1025.43
2023-02-15T05:54:58.101Z,1025.48
2023-02-15T05:55:58.091Z,1025.44
2023-02-15T05:56:58.044Z,1025.45
2023-02-15T05:57:58.059Z,1025.43
2023-02-15T05:58:58.041Z,1025.47
2023-02-15T05:59:58.052Z,1025.46
2023-02-15T06:00:57.992Z,1025.39
2023-02-15T06:01:58.020Z,1025.42
2023-02-15T06:02:57.964Z,1025.50
2023-02-15T06:03:57.990Z,1025.43
2023-02-15T06:04:57.962Z,1025.33
2023-02-15T06:05:57.963Z,1025.37
2023-02-15T06:06:57.939Z,1025.38
2023-02-15T06:07:57.939Z,1025.37
2023-02-15T06:08:57.891Z,1025.38
2023-02-15T06:09:57.909Z,1025.39
2023-02-15T06:10:57.923Z,1025.36
2023-02-15T06:11:57.911Z,1025.43
2023-02-15T06:12:57.870Z,1025.42
2023-02-15T06:13:57.844Z,1025.48
2023-02-15T06:14:57.846Z,1025.49
2023-02-15T06:15:57.871Z,1025.50
2023-02-15T06:16:57.818Z,1025.46
2023-02-15T06:17:57.796Z,1025.42
2023-02-15T06:18:57.776Z,1025.47
2023-02-15T06:19:57.813Z,1025.43
2023-02-15T06:20:57.763Z,1025.49
2023-02-15T06:21:57.744Z,1025.52
2023-02-15T06:22:57.719Z,1025.49
2023-02-15T06:23:57.760Z,1025.54
2023-02-15T06:24:57.713Z,1025.51
2023-02-15T06:25:57.703Z,1025.53
2023-02-15T06:26:57.715Z,1025.54
2023-02-15T06:27:57.668Z,1025.52
2023-02-15T06:28:57.636Z,1025.60
2023-02-15T06:29:57.724Z,1025.57
2023-02-15T06:30:58.102Z,1025.61
2023-02-15T06:31:57.794Z,1025.56
2023-02-15T06:32:57.578Z,1025.61
2023-02-15T06:33:57.593Z,1025.60
2023-02-15T06:34:57.564Z,1025.61
2023-02-15T06:35:57.577Z,1025.69
2023-02-15T06:36:57.559Z,1025.62
2023-02-15T06:37:57.541Z,1025.63
2023-02-15T06:38:57.544Z,1025.64
2023-02-15T06:39:57.532Z,1025.68
2023-02-15T06:40:57.489Z,1025.64
2023-02-15T06:41:57.485Z,1025.64
2023-02-15T06:42:57.460Z,1025.67
2023-02-15T06:43:57.486Z,1025.67
2023-02-15T06:44:57.438Z,1025.71
2023-02-15T06:45:57.485Z,1025.76
2023-02-15T06:46:57.433Z,1025.74
2023-02-15T06:47:57.438Z,1025.77
2023-02-15T06:48:57.374Z,1025.72
2023-02-15T06:49:57.413Z,1025.72
2023-02-15T06:50:57.361Z,1025.75
2023-02-15T06:51:57.396Z,1025.75
2023-02-15T06:52:57.364Z,1025.73
2023-02-15T06:53:57.328Z,1025.74
2023-02-15T06:54:57.353Z,1025.73
2023-02-15T06:55:57.329Z,1025.73
2023-02-15T06:56:57.308Z,1025.68
2023-02-15T06:57:57.314Z,1025.62
2023-02-15T06:58:57.261Z,1025.63
2023-02-15T06:59:57.261Z,1025.60
2023-02-15T07:00:57.249Z,1025.67
2023-02-15T07:01:57.323Z,1025.60
2023-02-15T07:02:57.223Z,1025.61
2023-02-15T07:03:57.197Z,1025.57
2023-02-15T07:04:57.281Z,1025.60
2023-02-15T07:05:57.214Z,1025.58
2023-02-15T07:06:57.184Z,1025.61
2023-02-15T07:07:57.143Z,1025.64
2023-02-15T07:08:57.115Z,1025.57
2023-02-15T07:09:57.113Z,1025.58
2023-02-15T07:10:57.129Z,1025.57
2023-02-15T07:11:57.155Z,1025.66
2023-02-15T07:12:57.079Z,1025.60
2023-02-15T07:13:57.085Z,1025.60
2023-02-15T07:14:57.076Z,1025.63
2023-02-15T07:15:57.121Z,1025.60
2023-02-15T07:16:57.020Z,1025.63
2023-02-15T07:17:57.021Z,1025.67
2023-02-15T07:18:57.026Z,1025.62
2023-02-15T07:19:57.014Z,1025.59
2023-02-15T07:20:56.974Z,1025.64
2023-02-15T07:21:57.003Z,1025.57
2023-02-15T07:22:56.971Z,1025.60
2023-02-15T07:23:56.966Z,1025.57
2023-02-15T07:24:56.915Z,1025.57
2023-02-15T07:25:56.916Z,1025.61
2023-02-15T07:26:56.948Z,1025.52
2023-02-15T07:27:56.896Z,1025.54
2023-02-15T07:28:56.907Z,1025.47
2023-02-15T07:29:56.903Z,1025.51
2023-02-15T07:30:56.884Z,1025.47
2023-02-15T07:31:56.877Z,1025.43
2023-02-15T07:32:56.832Z,1025.37
2023-02-15T07:33:56.805Z,1025.36
2023-02-15T07:34:56.802Z,1025.33
2023-02-15T07:35:56.785Z,1025.33
2023-02-15T07:36:56.772Z,1025.37
2023-02-15T07:37:56.766Z,1025.33
2023-02-15T07:38:56.744Z,1025.24
2023-02-15T07:39:56.732Z,1025.24
2023-02-15T07:40:56.720Z,1025.23
2023-02-15T07:41:56.709Z,1025.24
2023-02-15T07:42:56.734Z,1025.21
2023-02-15T07:43:56.717Z,1025.15
2023-02-15T07:44:56.697Z,1025.14
2023-02-15T07:45:56.643Z,1025.11
2023-02-15T07:46:56.644Z,1025.12
2023-02-15T07:47:56.687Z,1025.09
2023-02-15T07:48:56.613Z,1025.13
2023-02-15T07:49:56.597Z,1025.08
2023-02-15T07:50:56.638Z,1025.10
2023-02-15T07:51:56.582Z,1025.05
2023-02-15T07:52:56.629Z,1025.02
2023-02-15T07:53:56.597Z,1025.08
2023-02-15T07:54:56.550Z,1025.01
2023-02-15T07:55:56.560Z,1024.99
2023-02-15T07:56:56.580Z,1024.99
2023-02-15T07:57:56.571Z,1024.98
2023-02-15T07:58:56.557Z,1025.05
2023-02-15T07:59:56.496Z,1024.90
2023-02-15T08:00:56.492Z,1025.02
2023-02-15T08:01:56.484Z,1024.98
2023-02-15T08:02:56.539Z,1025.00
2023-02-15T08:03:56.506Z,1024.97
2023-02-15T08:04:56.469Z,1024.90
2023-02-15T08:05:56.422Z,1024.98
2023-02-15T08:06:56.399Z,1024.95
2023-02-15T08:07:56.373Z,1024.92
2023-02-15T08:08:56.393Z,1024.98
2023-02-15T08:09:56.354Z,1024.90
2023-02-15T08:10:56.374Z,1024.92
2023-02-15T08:11:56.340Z,1024.92
2023-02-15T08:12:56.363Z,1024.91
2023-02-15T08:13:56.416Z,1024.85
2023-02-15T08:14:56.342Z,1024.98
2023-02-15T08:15:56.304Z,1024.91
2023-02-15T08:16:56.330Z,1024.86
2023-02-15T08:17:56.286Z,1024.91
2023-02-15T08:18:56.273Z,1024.90
2023-02-15T08:19:56.256Z,1024.88
2023-02-15T08:20:56.242Z,1024.89
2023-02-15T08:21:56.246Z,1024.92
2023-02-15T08:22:56.239Z,1024.92
2023-02-15T08:23:56.189Z,1024.93
2023-02-15T08:24:56.198Z,1024.96
2023-02-15T08:25:56.146Z,1024.90
2023-02-15T08:26:56.191Z,1024.91
2023-02-15T08:27:56.127Z,1024.93
2023-02-15T08:28:56.186Z,1024.93
2023-02-15T08:29:56.146Z,1024.91
2023-02-15T08:30:56.182Z,1024.85
2023-02-15T08:31:56.219Z,1024.89
2023-02-15T08:32:56.078Z,1024.88
2023-02-15T08:33:56.110Z,1024.89
2023-02-15T08:34:56.100Z,1024.86
2023-02-15T08:35:56.054Z,1024.86
2023-02-15T08:36:56.061Z,1024.81
2023-02-15T08:37:55.992Z,1024.81
2023-02-15T08:38:56.008Z,1024.77
2023-02-15T08:39:56.017Z,1024.88
2023-02-15T08:40:56.003Z,1024.78
2023-02-15T08:41:56.003Z,1024.78
2023-02-15T08:42:55.998Z,1024.82
2023-02-15T08:43:55.960Z,1024.84
2023-02-15T08:44:55.962Z,1024.75
2023-02-15T08:45:55.997Z,1024.74
2023-02-15T08:46:55.942Z,1024.71
2023-02-15T08:47:55.904Z,1024.65
2023-02-15T08:48:55.921Z,1024.68
2023-02-15T08:49:55.855Z,1024.65
2023-02-15T08:50:55.883Z,1024.65
2023-02-15T08:51:55.817Z,1024.64
2023-02-15T08:52:55.823Z,1024.63
2023-02-15T08:53:55.956Z,1024.63
2023-02-15T08:54:55.874Z,1024.66
2023-02-15T08:55:55.807Z,1024.68
2023-02-15T08:56:55.806Z,1024.64
2023-02-15T08:57:55.795Z,1024.72
2023-02-15T08:58:55.792Z,1024.71
2023-02-15T08:59:55.773Z,1024.74
2023-02-15T09:00:55.756Z,1024.76
2023-02-15T09:01:55.722Z,1024.74
2023-02-15T09:02:55.717Z,1024.80
2023-02-15T09:03:55.737Z,1024.74
2023-02-15T09:04:55.705Z,1024.78
2023-02-15T09:05:55.666Z,1024.71
2023-02-15T09:06:55.677Z,1024.75
2023-02-15T09:07:55.612Z,1024.69
2023-02-15T09:08:55.708Z,1024.67
2023-02-15T09:09:55.619Z,1024.71
2023-02-15T09:10:55.626Z,1024.76
2023-02-15T09:11:59.367Z,1024.74
2023-02-15T09:12:55.596Z,1024.72
2023-02-15T09:13:55.605Z,1024.67
2023-02-15T09:14:55.598Z,1024.67
2023-02-15T09:15:55.552Z,1024.66
2023-02-15T09:16:55.639Z,1024.68
2023-02-15T09:17:55.525Z,1024.57
2023-02-15T09:18:55.552Z,1024.59
2023-02-15T09:19:55.493Z,1024.61
2023-02-15T09:20:55.469Z,1024.57
2023-02-15T09:21:55.464Z,1024.54
2023-02-15T09:22:58.123Z,1024.65
2023-02-15T09:23:55.475Z,1024.70
2023-02-15T09:24:55.462Z,1024.66
2023-02-15T09:25:55.420Z,1024.73
2023-02-15T09:26:55.394Z,1024.66
2023-02-15T09:27:55.401Z,1024.74
2023-02-15T09:28:55.411Z,1024.66
2023-02-15T09:29:55.447Z,1024.68
2023-02-15T09:30:55.360Z,1024.75
2023-02-15T09:31:55.425Z,1024.71
2023-02-15T09:32:55.360Z,1024.75
2023-02-15T09:33:55.317Z,1024.76
2023-02-15T09:34:55.344Z,1024.78
2023-02-15T09:35:55.299Z,1024.78
2023-02-15T09:36:55.288Z,1024.77
2023-02-15T09:37:55.266Z,1024.73
2023-02-15T09:38:55.241Z,1024.70
2023-02-15T09:39:55.229Z,1024.81
2023-02-15T09:40:55.218Z,1024.72
2023-02-15T09:41:55.182Z,1024.74
2023-02-15T09:42:55.221Z,1024.73
2023-02-15T09:43:55.158Z,1024.76
2023-02-15T09:44:55.191Z,1024.67
2023-02-15T09:45:55.256Z,1024.77
2023-02-15T09:46:55.151Z,1024.72
2023-02-15T09:47:55.135Z,1024.67
2023-02-15T09:48:55.108Z,1024.69
2023-02-15T09:49:55.128Z,1024.75
2023-02-15T09:50:55.102Z,1024.71
2023-02-15T09:51:55.113Z,1024.69
2023-02-15T09:52:55.110Z,1024.72
2023-02-15T09:53:55.067Z,1024.72
2023-02-15T09:54:55.060Z,1024.69
2023-02-15T09:55:55.015Z,1024.67
2023-02-15T09:56:55.045Z,1024.65
2023-02-15T09:57:55.060Z,1024.72
2023-02-15T09:58:55.020Z,1024.68
2023-02-15T09:59:54.994Z,1024.64
2023-02-15T10:00:55.013Z,1024.69
2023-02-15T10:01:54.939Z,1024.66
2023-02-15T10:02:54.955Z,1024.67
2023-02-15T10:03:54.953Z,1024.60
2023-02-15T10:04:55.081Z,1024.59
2023-02-15T10:05:54.922Z,1024.66
2023-02-15T10:06:54.904Z,1024.64
2023-02-15T10:07:54.905Z,1024.63
2023-02-15T10:08:54.910Z,1024.62
2023-02-15T10:09:54.872Z,1024.66
2023-02-15T10:10:54.842Z,1024.71
2023-02-15T10:11:54.838Z,1024.64
2023-02-15T10:12:54.857Z,1024.72
2023-02-15T10:13:54.825Z,1024.62
2023-02-15T10:14:54.835Z,1024.56
2023-02-15T10:15:54.761Z,1024.58
2023-02-15T10:16:54.808Z,1024.57
2023-02-15T10:17:54.781Z,1024.55
2023-02-15T10:18:54.756Z,1024.61
2023-02-15T10:19:54.723Z,1024.57
2023-02-15T10:20:54.733Z,1024.53
2023-02-15T10:21:54.700Z,1024.51
2023-02-15T10:22:54.731Z,1024.58
2023-02-15T10:23:54.689Z,1024.47
2023-02-15T10:24:54.732Z,1024.49
2023-02-15T10:25:54.633Z,1024.55
2023-02-15T10:26:54.648Z,1024.59
2023-02-15T10:27:54.613Z,1024.58
2023-02-15T10:28:54.603Z,1024.56
2023-02-15T10:29:54.647Z,1024.61
2023-02-15T10:30:54.625Z,1024.56
2023-02-15T10:31:54.654Z,1024.49
2023-02-15T10:32:54.541Z,1024.54
2023-02-15T10:33:54.586Z,1024.61
2023-02-15T10:34:54.577Z,1024.59
2023-02-15T10:35:54.566Z,1024.48
2023-02-15T10:36:54.543Z,1024.56
2023-02-15T10:37:54.573Z,1024.51
2023-02-15T10:38:54.507Z,1024.50
2023-02-15T10:39:54.496Z,1024.51
2023-02-15T10:40:54.529Z,1024.49
2023-02-15T10:41:54.467Z,1024.46
2023-02-15T10:42:54.418Z,1024.45
2023-02-15T10:43:54.457Z,1024.45
2023-02-15T10:44:54.390Z,1024.43
2023-02-15T10:45:54.406Z,1024.40
2023-02-15T10:46:54.370Z,1024.45
2023-02-15T10:47:54.366Z,1024.46
2023-02-15T10:48:54.385Z,1024.45
2023-02-15T10:49:54.378Z,1024.44
2023-02-15T10:50:54.324Z,1024.48
2023-02-15T10:51:54.315Z,1024.46
2023-02-15T10:52:54.347Z,1024.43
2023-02-15T10:53:54.317Z,1024.41
2023-02-15T10:54:54.299Z,1024.37
2023-02-15T10:55:54.253Z,1024.35
2023-02-15T10:56:54.252Z,1024.34
2023-02-15T10:57:54.281Z,1024.35
2023-02-15T10:58:54.207Z,1024.33
2023-02-15T10:59:54.283Z,1024.34
2023-02-15T11:00:54.193Z,1024.34
2023-02-15T11:01:54.362Z,1024.31
2023-02-15T11:02:54.187Z,1024.30
2023-02-15T11:03:54.217Z,1024.30
2023-02-15T11:04:54.329Z,1024.32
2023-02-15T11:05:54.152Z,1024.33
2023-02-15T11:06:54.133Z,1024.28
2023-02-15T11:07:54.103Z,1024.30
2023-02-15T11:08:54.079Z,1024.26
2023-02-15T11:09:54.103Z,1024.26
2023-02-15T11:10:54.113Z,1024.19
2023-02-15T11:11:54.078Z,1024.21
2023-02-15T11:12:54.112Z,1024.21
2023-02-15T11:13:54.066Z,1024.21
2023-02-15T11:14:54.012Z,1024.13
2023-02-15T11:15:54.202Z,1024.18
2023-02-15T11:16:54.038Z,1024.17
2023-02-15T11:17:54.024Z,1024.14
2023-02-15T11:18:54.010Z,1024.18
2023-02-15T11:19:54.007Z,1024.12
2023-02-15T11:20:54.022Z,1024.15
2023-02-15T11:21:53.964Z,1024.15
2023-02-15T11:22:53.888Z,1024.13
2023-02-15T11:23:53.965Z,1024.06
2023-02-15T11:24:53.905Z,1024.03
2023-02-15T11:25:53.935Z,1024.09
2023-02-15T11:26:53.863Z,1024.08
2023-02-15T11:27:53.882Z,1024.07
2023-02-15T11:28:53.845Z,1024.01
2023-02-15T11:29:53.847Z,1024.06
2023-02-15T11:30:53.871Z,1024.01
2023-02-15T11:31:53.952Z,1023.99
2023-02-15T11:32:53.817Z,1023.99
2023-02-15T11:33:53.795Z,1024.00
2023-02-15T11:34:53.839Z,1023.99
2023-02-15T11:35:53.749Z,1024.00
2023-02-15T11:36:53.748Z,1024.06
2023-02-15T11:37:53.876Z,1023.98
2023-02-15T11:38:53.700Z,1024.01
2023-02-15T11:39:53.741Z,1024.05
2023-02-15T11:40:53.739Z,1024.06
2023-02-15T11:41:53.710Z,1024.02
2023-02-15T11:42:53.645Z,1024.06
2023-02-15T11:43:53.684Z,1024.07
2023-02-15T11:44:53.700Z,1023.96
2023-02-15T11:45:53.680Z,1023.94
2023-02-15T11:46:53.620Z,1023.96
2023-02-15T11:47:53.605Z,1023.96
2023-02-15T11:48:53.642Z,1023.89
2023-02-15T11:49:53.611Z,1023.86
2023-02-15T11:50:53.587Z,1023.87
2023-02-15T11:51:53.576Z,1023.78
2023-02-15T11:52:53.539Z,1023.79
2023-02-15T11:53:53.597Z,1023.80
2023-02-15T11:54:53.521Z,1023.75
2023-02-15T11:55:53.540Z,1023.80
2023-02-15T11:56:53.510Z,1023.75
2023-02-15T11:57:53.451Z,1023.70
2023-02-15T11:58:53.460Z,1023.67
2023-02-15T11:59:53.535Z,1023.70
2023-02-15T12:00:53.415Z,1023.65
2023-02-15T12:01:53.446Z,1023.70
2023-02-15T12:02:53.484Z,1023.66
2023-02-15T12:03:53.493Z,1023.68
2023-02-15T12:04:53.394Z,1023.64